Time;durP1;ratioP1;P1;durP2;ratioP2;P2;SDS_P1;SDS_P2;PMS_P1;PMS_P2;Temp;Humidity;BMP_temperature;BMP_pressure;BME280_temperature;BME280_humidity;BME280_pressure;Samples;Min_cycle;Max_cycle;Signal;HPM_P1;HPM_P2
2022/01/28 00:01:26;;;;;;;17.17;11.83;;;2.20;99.90;;;;;;5057744;28;20454;-77
2022/01/28 00:04:01;;;;;;;15.63;12.87;;;2.30;99.90;;;;;;5059597;28;20482;-79
2022/01/28 00:06:29;;;;;;;14.93;11.67;;;2.30;99.90;;;;;;5046665;28;20235;-77
2022/01/28 00:08:57;;;;;;;16.50;12.90;;;2.30;99.90;;;;;;5050886;28;20239;-76
2022/01/28 00:11:25;;;;;;;15.10;11.77;;;2.30;99.90;;;;;;5055932;28;20240;-81
2022/01/28 00:14:02;;;;;;;15.13;12.13;;;2.30;99.90;;;;;;5055375;28;20498;-77
2022/01/28 00:19:54;;;;;;;14.93;11.83;;;2.30;99.90;;;;;;5038144;28;20201;-78
2022/01/28 00:38:52;;;;;;;13.07;10.23;;;2.40;99.90;;;;;;5055959;28;20239;-77
2022/01/28 00:41:20;;;;;;;13.63;10.23;;;2.40;99.90;;;;;;5062135;28;20231;-79
2022/01/28 00:43:48;;;;;;;13.40;10.53;;;2.40;99.90;;;;;;5072290;28;20258;-78
2022/01/28 00:46:16;;;;;;;13.87;10.47;;;2.40;99.90;;;;;;5067731;28;20212;-78
2022/01/28 00:48:46;;;;;;;12.60;10.43;;;2.40;99.90;;;;;;5067652;28;20423;-80
2022/01/28 00:51:14;;;;;;;15.00;10.63;;;2.30;99.90;;;;;;5067363;28;20240;-77
2022/01/28 00:53:42;;;;;;;12.57;10.17;;;2.30;99.90;;;;;;5045657;28;20844;-78
2022/01/28 00:56:10;;;;;;;12.73;10.17;;;2.30;99.90;;;;;;5047157;28;20240;-79
2022/01/28 00:58:38;;;;;;;13.73;10.57;;;2.20;99.90;;;;;;5054415;28;20347;-77
2022/01/28 01:01:06;;;;;;;11.93;9.87;;;2.20;99.90;;;;;;5054379;28;20303;-79
2022/01/28 01:03:35;;;;;;;10.80;9.10;;;2.20;99.90;;;;;;5054606;28;20370;-77
2022/01/28 01:06:05;;;;;;;13.77;9.67;;;2.20;99.90;;;;;;5054069;28;20231;-80
2022/01/28 01:08:33;;;;;;;10.67;8.80;;;2.30;99.90;;;;;;5054572;28;20211;-77
2022/01/28 01:11:01;;;;;;;11.90;9.80;;;2.20;99.90;;;;;;5054016;28;20526;-78
2022/01/28 01:13:35;;;;;;;12.50;10.77;;;2.10;99.90;;;;;;5037914;28;20200;-76
2022/01/28 01:16:05;;;;;;;14.17;10.93;;;2.10;99.90;;;;;;5034465;28;20271;-76
2022/01/28 01:18:39;;;;;;;14.03;10.53;;;2.10;99.90;;;;;;5034703;28;20993;-77
2022/01/28 01:21:13;;;;;;;13.57;11.17;;;2.00;99.90;;;;;;5041928;28;20880;-80
2022/01/28 01:23:50;;;;;;;12.23;10.43;;;1.90;99.90;;;;;;5053638;28;20486;-78
2022/01/28 01:26:19;;;;;;;13.93;10.57;;;2.00;99.90;;;;;;5054608;28;20292;-80
2022/01/28 01:28:48;;;;;;;13.40;10.73;;;2.00;99.90;;;;;;5054800;28;20489;-77
2022/01/28 01:31:19;;;;;;;14.20;11.07;;;2.00;99.90;;;;;;5056767;28;20459;-79
2022/01/28 01:33:52;;;;;;;11.80;10.30;;;2.00;99.90;;;;;;5054715;28;20478;-79
2022/01/28 01:36:23;;;;;;;13.23;9.93;;;2.00;99.90;;;;;;5061117;28;20601;-77
2022/01/28 01:38:51;;;;;;;14.47;10.90;;;1.90;99.90;;;;;;5058022;28;20271;-78
2022/01/28 01:41:29;;;;;;;11.37;9.83;;;1.90;99.90;;;;;;5053514;28;20455;-79
2022/01/28 01:44:01;;;;;;;14.23;10.83;;;1.90;99.90;;;;;;5052251;28;20236;-77
2022/01/28 01:46:43;;;;;;;13.17;10.20;;;1.90;99.90;;;;;;5053504;28;20968;-76
2022/01/28 01:52:03;;;;;;;12.17;9.93;;;1.90;99.90;;;;;;5050455;28;20286;-77
2022/01/28 01:54:35;;;;;;;13.47;9.90;;;1.90;99.90;;;;;;5033671;28;20456;-78
2022/01/28 01:57:04;;;;;;;13.07;9.93;;;1.90;99.90;;;;;;5047539;28;20295;-77
2022/01/28 01:59:32;;;;;;;12.03;9.87;;;1.90;99.90;;;;;;5053401;28;20450;-80
2022/01/28 02:02:01;;;;;;;13.00;9.73;;;1.90;99.90;;;;;;5052939;28;20482;-78
2022/01/28 02:04:32;;;;;;;12.90;8.87;;;1.90;99.90;;;;;;5053187;28;20570;-80
2022/01/28 02:07:02;;;;;;;12.73;9.40;;;2.00;99.90;;;;;;5053209;28;20457;-78
2022/01/28 02:09:31;;;;;;;12.57;8.93;;;2.00;99.90;;;;;;5045589;28;20486;-77
2022/01/28 02:11:59;;;;;;;11.00;8.60;;;2.00;99.90;;;;;;5053293;28;20463;-78
2022/01/28 02:14:28;;;;;;;11.23;8.60;;;2.00;99.90;;;;;;5052542;28;21075;-78
2022/01/28 02:16:56;;;;;;;11.73;8.53;;;2.00;99.90;;;;;;5053064;28;20803;-78
2022/01/28 02:19:24;;;;;;;10.63;8.80;;;2.00;99.90;;;;;;5053296;28;20486;-77
2022/01/28 02:21:54;;;;;;;10.97;8.50;;;2.00;99.90;;;;;;5052788;28;20238;-77
2022/01/28 02:24:28;;;;;;;10.23;8.30;;;2.00;99.90;;;;;;5053978;28;20597;-77
2022/01/28 02:26:56;;;;;;;10.80;8.27;;;2.00;99.90;;;;;;5053257;28;20220;-78
2022/01/28 02:29:29;;;;;;;11.47;8.47;;;2.00;99.90;;;;;;5052847;28;20220;-78
2022/01/28 02:31:59;;;;;;;12.17;8.07;;;2.00;99.90;;;;;;5052638;28;20482;-79
2022/01/28 02:34:27;;;;;;;10.60;8.07;;;2.00;99.90;;;;;;5052783;28;20212;-79
2022/01/28 02:36:58;;;;;;;10.83;8.07;;;2.00;99.90;;;;;;5053046;28;20338;-78
2022/01/28 02:39:28;;;;;;;10.37;7.77;;;2.00;99.90;;;;;;5052749;28;20234;-75
2022/01/28 02:42:03;;;;;;;11.23;8.10;;;2.00;99.90;;;;;;5053058;28;20303;-76
2022/01/28 02:44:46;;;;;;;10.20;8.23;;;1.90;99.90;;;;;;5053061;28;20553;-77
2022/01/28 02:47:17;;;;;;;9.53;7.90;;;1.90;99.90;;;;;;5055130;28;20464;-77
2022/01/28 02:49:45;;;;;;;11.30;8.10;;;1.90;99.90;;;;;;5056835;28;20192;-78
2022/01/28 02:52:24;;;;;;;11.90;8.13;;;1.90;99.90;;;;;;5050675;28;20208;-77
2022/01/28 02:54:53;;;;;;;10.90;8.30;;;1.90;99.90;;;;;;5051327;28;20231;-78
2022/01/28 02:57:25;;;;;;;11.60;8.77;;;2.00;99.90;;;;;;5056775;28;20240;-79
2022/01/28 02:59:53;;;;;;;11.87;8.67;;;2.00;99.90;;;;;;5045774;28;20239;-76
2022/01/28 03:02:22;;;;;;;10.13;8.27;;;2.00;99.90;;;;;;5039628;28;20228;-79
2022/01/28 03:05:17;;;;;;;9.57;7.97;;;2.00;99.90;;;;;;5055981;28;20513;-77
2022/01/28 03:07:47;;;;;;;11.00;8.60;;;2.00;99.90;;;;;;5056115;28;20622;-76
2022/01/28 03:10:29;;;;;;;10.93;8.63;;;2.00;99.90;;;;;;5055956;28;20674;-78
2022/01/28 03:13:14;;;;;;;11.20;8.27;;;2.00;99.90;;;;;;5057011;28;20808;-78
2022/01/28 03:15:50;;;;;;;11.00;8.33;;;1.90;99.90;;;;;;5056413;28;20807;-75
2022/01/28 03:18:22;;;;;;;11.80;7.90;;;1.90;99.90;;;;;;5054730;28;20445;-80
2022/01/28 03:21:17;;;;;;;10.70;7.53;;;2.00;99.90;;;;;;5036051;28;20432;-75
2022/01/28 03:23:47;;;;;;;10.57;7.80;;;2.10;99.90;;;;;;5047794;28;20572;-78
2022/01/28 03:26:15;;;;;;;10.57;7.47;;;2.00;99.90;;;;;;5055962;28;20773;-78
2022/01/28 03:28:44;;;;;;;10.13;8.23;;;2.00;99.90;;;;;;5056115;28;20208;-75
2022/01/28 03:31:12;;;;;;;10.30;7.50;;;2.10;99.90;;;;;;5055618;28;20736;-78
2022/01/28 03:33:40;;;;;;;9.30;7.43;;;2.10;99.90;;;;;;5038880;28;20459;-77
2022/01/28 03:36:10;;;;;;;10.03;7.80;;;2.10;99.90;;;;;;5036156;28;20455;-79
2022/01/28 03:38:40;;;;;;;9.37;7.37;;;2.10;99.90;;;;;;5035959;28;20796;-78
2022/01/28 03:41:15;;;;;;;10.30;7.43;;;2.10;99.90;;;;;;5043224;28;20208;-78
2022/01/28 03:43:43;;;;;;;9.43;7.27;;;2.10;99.90;;;;;;5055392;28;20716;-78
2022/01/28 03:46:11;;;;;;;9.37;7.67;;;2.10;99.90;;;;;;5055907;28;20490;-78
2022/01/28 03:48:40;;;;;;;11.80;7.50;;;2.10;99.90;;;;;;5054504;28;20831;-79
2022/01/28 03:51:08;;;;;;;10.53;7.27;;;2.10;99.90;;;;;;5045154;28;20542;-75
2022/01/28 03:53:36;;;;;;;8.80;7.17;;;2.00;99.90;;;;;;5057652;28;20295;-78
2022/01/28 03:56:05;;;;;;;9.27;7.50;;;2.10;99.90;;;;;;5056094;28;20293;-77
2022/01/28 03:58:34;;;;;;;9.80;7.47;;;2.00;99.90;;;;;;5055139;28;20455;-78
2022/01/28 04:01:07;;;;;;;10.87;8.07;;;2.00;99.90;;;;;;5055864;28;20303;-77
2022/01/28 04:11:53;;;;;;;11.73;9.13;;;1.80;99.90;;;;;;4978750;28;20466;-77
2022/01/28 04:14:38;;;;;;;13.73;9.90;;;1.80;99.90;;;;;;5034940;28;20247;-79
2022/01/28 04:17:24;;;;;;;13.93;10.23;;;1.80;99.90;;;;;;5035056;28;20726;-77
2022/01/28 04:19:53;;;;;;;14.63;10.00;;;1.80;99.90;;;;;;5034959;28;20973;-77
2022/01/28 04:22:21;;;;;;;13.00;9.83;;;1.70;99.90;;;;;;5043213;28;20208;-78
2022/01/28 04:24:50;;;;;;;14.20;9.90;;;1.80;99.90;;;;;;5052453;28;20710;-77
2022/01/28 04:27:18;;;;;;;12.73;9.73;;;1.80;99.90;;;;;;5055002;28;20323;-76
2022/01/28 04:29:48;;;;;;;12.33;9.07;;;1.80;99.90;;;;;;5054609;28;20678;-77
2022/01/28 04:32:17;;;;;;;12.33;9.90;;;1.80;99.90;;;;;;5054309;28;20643;-77
2022/01/28 04:34:46;;;;;;;12.57;9.50;;;1.80;99.90;;;;;;5054505;28;20534;-77
2022/01/28 04:37:24;;;;;;;12.43;9.83;;;1.90;99.90;;;;;;5054998;28;20215;-78
2022/01/28 04:39:57;;;;;;;12.73;9.10;;;1.90;99.90;;;;;;5055271;28;20461;-76
2022/01/28 04:45:16;;;;;;;11.93;8.47;;;1.90;99.90;;;;;;5052273;28;20303;-77
2022/01/28 04:47:55;;;;;;;11.37;8.40;;;2.00;99.90;;;;;;5054368;28;20306;-76
2022/01/28 04:50:32;;;;;;;11.47;8.63;;;2.00;99.90;;;;;;5053747;28;20515;-75
2022/01/28 04:56:02;;;;;;;12.10;8.43;;;2.00;99.90;;;;;;5025104;28;20296;-78
2022/01/28 05:01:41;;;;;;;11.47;8.07;;;2.10;99.90;;;;;;5038425;28;20228;-79
2022/01/28 05:04:24;;;;;;;11.67;8.10;;;2.10;99.90;;;;;;5040236;28;20310;-76
2022/01/28 05:07:25;;;;;;;10.67;7.60;;;2.10;99.90;;;;;;5053996;28;20705;-79
2022/01/28 05:10:30;;;;;;;11.50;8.13;;;2.10;99.90;;;;;;5056071;28;20261;-77
2022/01/28 05:13:23;;;;;;;9.73;7.47;;;2.10;99.90;;;;;;5047581;28;20296;-78
2022/01/28 05:16:30;;;;;;;11.73;7.67;;;2.10;99.90;;;;;;5055051;28;20224;-78
2022/01/28 05:27:29;;;;;;;10.67;8.57;;;1.90;99.90;;;;;;5043368;28;20514;-76
2022/01/28 05:29:57;;;;;;;13.50;9.10;;;1.80;99.90;;;;;;5075567;28;20710;-77
2022/01/28 05:32:25;;;;;;;12.57;8.60;;;1.80;99.90;;;;;;5076521;28;20540;-78
2022/01/28 05:34:55;;;;;;;10.80;8.90;;;1.80;99.90;;;;;;5075262;28;20844;-79
2022/01/28 05:37:23;;;;;;;12.83;9.43;;;1.70;99.90;;;;;;5078723;28;20225;-80
2022/01/28 05:39:51;;;;;;;13.07;9.33;;;1.50;99.90;;;;;;5075565;28;20200;-78
2022/01/28 05:42:19;;;;;;;11.87;9.60;;;1.50;99.90;;;;;;5078913;28;20430;-79
2022/01/28 05:44:47;;;;;;;12.37;9.27;;;1.50;99.90;;;;;;5070299;28;20265;-76
2022/01/28 05:47:16;;;;;;;12.93;9.93;;;1.50;99.90;;;;;;5076576;28;20518;-81
2022/01/28 05:49:45;;;;;;;12.83;10.03;;;1.40;99.90;;;;;;5075268;28;20216;-80
2022/01/28 05:52:14;;;;;;;13.00;9.90;;;1.40;99.90;;;;;;5080491;28;20447;-79
2022/01/28 05:54:42;;;;;;;12.50;9.23;;;1.40;99.90;;;;;;5079233;28;20828;-79
2022/01/28 05:57:11;;;;;;;14.47;9.63;;;1.30;99.90;;;;;;5073462;28;20263;-78
2022/01/28 05:59:39;;;;;;;12.20;9.57;;;1.20;99.90;;;;;;5059265;28;20499;-79
2022/01/28 06:02:07;;;;;;;15.83;10.63;;;1.10;99.90;;;;;;5056771;28;20458;-77
2022/01/28 06:04:37;;;;;;;13.60;10.30;;;1.10;99.90;;;;;;5035136;28;21167;-77
2022/01/28 06:07:06;;;;;;;10.93;8.63;;;1.10;99.90;;;;;;5035667;28;20929;-78
2022/01/28 06:09:35;;;;;;;12.53;9.13;;;1.10;99.90;;;;;;5053901;28;20531;-77
2022/01/28 06:12:04;;;;;;;10.10;6.90;;;1.20;99.90;;;;;;5043931;28;20546;-77
2022/01/28 06:14:32;;;;;;;8.40;6.90;;;1.20;99.90;;;;;;5053913;28;20478;-75
2022/01/28 06:17:00;;;;;;;9.87;7.30;;;1.20;99.90;;;;;;5048656;28;20550;-77
2022/01/28 06:19:28;;;;;;;9.47;7.03;;;1.20;99.90;;;;;;5053712;28;20546;-76
2022/01/28 06:21:57;;;;;;;10.47;7.63;;;1.20;99.90;;;;;;5057811;28;20474;-78
2022/01/28 06:24:25;;;;;;;12.50;8.63;;;1.20;99.90;;;;;;5043827;28;20448;-77
2022/01/28 06:26:55;;;;;;;11.53;8.27;;;1.20;99.90;;;;;;5039803;28;20914;-79
2022/01/28 06:29:23;;;;;;;12.03;8.63;;;1.20;99.90;;;;;;5044256;28;20484;-77
2022/01/28 06:31:51;;;;;;;15.10;9.23;;;1.20;99.90;;;;;;5078694;28;20464;-77
2022/01/28 06:34:20;;;;;;;14.07;9.83;;;1.30;99.90;;;;;;5047717;28;20542;-78
2022/01/28 06:36:49;;;;;;;14.13;9.83;;;1.30;99.90;;;;;;5037352;28;20969;-78
2022/01/28 06:39:17;;;;;;;13.77;9.50;;;1.40;99.90;;;;;;5037183;28;20563;-77
2022/01/28 06:41:45;;;;;;;13.87;9.53;;;1.30;99.90;;;;;;5043393;28;20630;-75
2022/01/28 06:44:15;;;;;;;13.50;10.00;;;1.40;99.90;;;;;;5057748;28;20462;-77
2022/01/28 06:46:43;;;;;;;12.73;9.77;;;1.40;99.90;;;;;;5047505;28;20236;-77
2022/01/28 06:49:12;;;;;;;12.83;9.77;;;1.40;99.90;;;;;;5040061;28;20964;-77
2022/01/28 06:51:40;;;;;;;14.30;10.17;;;1.40;99.90;;;;;;5041398;28;20459;-78
2022/01/28 06:54:08;;;;;;;13.27;9.80;;;1.40;99.90;;;;;;5043060;28;20439;-77
2022/01/28 06:56:36;;;;;;;14.93;9.77;;;1.40;99.90;;;;;;5043128;28;20474;-77
2022/01/28 06:59:05;;;;;;;13.10;9.73;;;1.30;99.90;;;;;;5057674;28;20486;-79
2022/01/28 07:01:36;;;;;;;12.33;9.80;;;1.30;99.90;;;;;;5067494;28;20459;-78
2022/01/28 07:04:04;;;;;;;13.40;10.13;;;1.40;99.90;;;;;;5074702;28;20445;-78
2022/01/28 07:06:32;;;;;;;14.43;10.10;;;1.30;99.90;;;;;;5067967;28;20991;-77
2022/01/28 07:09:01;;;;;;;13.50;9.43;;;1.30;99.90;;;;;;5050148;28;20455;-75
2022/01/28 07:11:30;;;;;;;14.20;10.30;;;1.30;99.90;;;;;;5049111;28;20463;-77
2022/01/28 07:13:58;;;;;;;12.97;9.00;;;1.40;99.90;;;;;;5047581;28;20475;-76
2022/01/28 07:16:27;;;;;;;13.15;10.38;;;1.40;99.90;;;;;;5044189;28;20492;-75
2022/01/28 07:18:57;;;;;;;13.17;9.60;;;1.50;99.90;;;;;;5046759;28;20200;-75
2022/01/28 07:21:57;;;;;;;11.47;9.30;;;1.60;99.90;;;;;;5049601;28;20841;-75
2022/01/28 07:24:49;;;;;;;13.80;8.40;;;1.60;99.90;;;;;;5049022;28;20514;-75
2022/01/28 07:27:19;;;;;;;11.07;8.07;;;1.60;99.90;;;;;;5050078;28;20572;-74
2022/01/28 07:29:48;;;;;;;10.10;8.00;;;1.60;99.90;;;;;;5051667;28;20509;-78
2022/01/28 07:32:17;;;;;;;13.43;8.47;;;1.60;99.90;;;;;;5044656;28;20243;-73
2022/01/28 07:34:47;;;;;;;10.80;8.20;;;1.60;99.90;;;;;;5036783;28;20550;-73
2022/01/28 07:37:15;;;;;;;11.10;8.40;;;1.70;99.90;;;;;;5043549;28;20617;-73
2022/01/28 07:39:45;;;;;;;11.60;8.27;;;1.60;99.90;;;;;;5060562;28;20865;-77
2022/01/28 07:42:13;;;;;;;12.60;8.53;;;1.60;99.90;;;;;;5040837;28;20626;-77
2022/01/28 07:44:41;;;;;;;11.00;7.93;;;1.60;99.90;;;;;;5042364;28;20483;-77
2022/01/28 07:47:09;;;;;;;11.03;7.43;;;1.70;99.90;;;;;;5054885;28;20274;-75
2022/01/28 07:49:38;;;;;;;13.43;8.10;;;1.70;99.90;;;;;;5039526;28;20639;-75
2022/01/28 07:52:08;;;;;;;9.77;7.60;;;1.80;99.90;;;;;;5053141;28;20254;-78
2022/01/28 07:54:38;;;;;;;10.60;7.33;;;1.80;99.90;;;;;;5042795;28;20291;-76
2022/01/28 07:57:07;;;;;;;9.60;6.97;;;1.90;99.90;;;;;;5067186;28;20496;-76
2022/01/28 07:59:35;;;;;;;8.40;6.80;;;1.80;99.90;;;;;;5058671;28;20262;-77
2022/01/28 08:02:03;;;;;;;9.17;6.57;;;1.80;99.90;;;;;;5049869;28;20631;-74
2022/01/28 08:04:33;;;;;;;7.90;6.27;;;1.90;99.90;;;;;;5042374;28;20201;-74
2022/01/28 08:07:01;;;;;;;8.97;6.33;;;1.90;99.90;;;;;;5051173;28;20884;-75
2022/01/28 08:09:30;;;;;;;10.43;7.50;;;1.90;99.90;;;;;;5043260;28;20488;-75
2022/01/28 08:11:58;;;;;;;9.60;7.47;;;1.90;99.90;;;;;;5056095;28;20220;-75
2022/01/28 08:14:26;;;;;;;11.87;8.47;;;1.80;99.90;;;;;;5056061;28;20966;-75
2022/01/28 08:16:58;;;;;;;13.57;9.67;;;1.80;99.90;;;;;;5052292;28;20609;-76
2022/01/28 08:19:27;;;;;;;11.30;8.43;;;1.70;99.90;;;;;;5057993;28;20490;-73
2022/01/28 08:21:55;;;;;;;10.67;7.73;;;1.70;99.90;;;;;;5059533;28;20454;-74
2022/01/28 08:24:23;;;;;;;11.30;7.97;;;1.70;99.90;;;;;;5046236;28;20296;-75
2022/01/28 08:26:53;;;;;;;11.97;8.80;;;1.70;99.90;;;;;;5057318;28;20201;-75
2022/01/28 08:29:22;;;;;;;10.13;7.70;;;1.70;99.90;;;;;;5069183;28;20482;-76
2022/01/28 08:31:50;;;;;;;8.87;7.27;;;1.70;99.90;;;;;;5060662;28;20597;-76
2022/01/28 08:34:21;;;;;;;9.10;7.40;;;1.70;99.90;;;;;;5054674;28;20467;-76
2022/01/28 08:36:53;;;;;;;11.97;7.97;;;1.70;99.90;;;;;;5055444;28;20224;-73
2022/01/28 08:39:22;;;;;;;11.07;7.93;;;1.70;99.90;;;;;;5061903;28;20563;-73
2022/01/28 08:41:52;;;;;;;10.67;7.50;;;1.60;99.90;;;;;;5049864;28;20200;-75
2022/01/28 08:44:20;;;;;;;12.70;8.00;;;1.70;99.90;;;;;;5044999;28;20261;-79
2022/01/28 08:46:49;;;;;;;10.43;7.70;;;1.80;99.90;;;;;;5055759;28;20225;-78
2022/01/28 08:49:17;;;;;;;13.47;7.73;;;1.80;99.90;;;;;;5049542;28;20482;-75
2022/01/28 08:51:48;;;;;;;9.43;7.40;;;1.90;99.90;;;;;;5054538;28;20196;-75
2022/01/28 08:54:17;;;;;;;9.67;7.37;;;1.90;99.90;;;;;;5055384;28;20485;-72
2022/01/28 08:56:45;;;;;;;12.43;7.17;;;2.00;99.90;;;;;;5054966;28;20582;-74
2022/01/28 08:59:35;;;;;;;9.80;7.23;;;2.00;99.90;;;;;;5055273;28;20208;-73
2022/01/28 09:02:03;;;;;;;9.60;6.80;;;2.10;99.90;;;;;;5052617;28;20204;-76
2022/01/28 09:04:32;;;;;;;10.50;7.63;;;2.10;99.90;;;;;;5055622;28;20604;-73
2022/01/28 09:07:00;;;;;;;8.90;7.00;;;2.10;99.90;;;;;;5056024;28;20458;-74
2022/01/28 09:09:29;;;;;;;10.93;7.07;;;2.30;99.90;;;;;;5060132;28;20228;-76
2022/01/28 09:12:08;;;;;;;12.00;6.13;;;2.40;99.90;;;;;;5069034;28;20232;-76
2022/01/28 09:15:04;;;;;;;9.87;6.77;;;2.40;99.90;;;;;;5045312;28;20583;-76
2022/01/28 09:17:52;;;;;;;10.40;6.13;;;2.40;99.90;;;;;;5043644;28;20204;-73
2022/01/28 09:20:26;;;;;;;10.10;6.03;;;2.40;99.90;;;;;;5053267;28;20235;-73
2022/01/28 09:22:55;;;;;;;9.67;5.80;;;2.60;99.90;;;;;;5052126;28;20555;-75
2022/01/28 09:25:24;;;;;;;8.37;5.40;;;2.70;99.90;;;;;;5052166;28;20208;-75
2022/01/28 09:27:52;;;;;;;7.90;4.80;;;3.50;99.90;;;;;;5044165;28;20201;-76
2022/01/28 09:30:22;;;;;;;7.93;4.43;;;4.40;99.90;;;;;;5038205;28;20204;-76
2022/01/28 09:32:52;;;;;;;7.77;4.40;;;4.50;99.90;;;;;;5053924;28;20242;-75
2022/01/28 09:35:21;;;;;;;7.50;4.60;;;4.20;99.90;;;;;;5052868;28;20215;-73
2022/01/28 09:37:52;;;;;;;8.13;5.03;;;4.00;99.90;;;;;;5036576;28;20304;-74
2022/01/28 09:40:20;;;;;;;8.87;4.77;;;3.90;99.90;;;;;;5033942;28;20215;-76
2022/01/28 09:42:52;;;;;;;7.17;4.53;;;3.70;99.90;;;;;;5034369;28;20200;-74
2022/01/28 09:45:24;;;;;;;7.33;4.87;;;3.50;99.90;;;;;;5042355;28;20206;-75
2022/01/28 09:47:57;;;;;;;7.40;4.80;;;3.20;99.90;;;;;;5053314;28;20252;-75
2022/01/28 09:50:28;;;;;;;8.40;4.80;;;3.00;99.90;;;;;;5052235;28;20216;-75
2022/01/28 09:52:57;;;;;;;9.03;5.00;;;3.00;99.90;;;;;;5049679;28;20239;-76
2022/01/28 09:55:29;;;;;;;8.83;5.00;;;3.00;99.90;;;;;;5053560;28;20251;-78
2022/01/28 09:58:00;;;;;;;9.63;4.80;;;3.00;99.90;;;;;;5051936;28;20270;-74
2022/01/28 10:00:31;;;;;;;10.30;4.43;;;3.00;99.90;;;;;;5041839;28;20196;-72
2022/01/28 10:03:02;;;;;;;8.33;4.80;;;3.00;99.90;;;;;;5044321;28;20258;-75
2022/01/28 10:05:34;;;;;;;8.60;4.57;;;2.90;99.90;;;;;;5049129;28;20275;-77
2022/01/28 10:08:09;;;;;;;7.97;4.40;;;2.90;99.90;;;;;;5059087;28;20203;-77
2022/01/28 10:11:03;;;;;;;12.70;5.10;;;2.70;99.90;;;;;;5064339;28;20199;-77
2022/01/28 10:13:37;;;;;;;8.63;4.57;;;2.70;99.90;;;;;;5052891;28;20262;-77
2022/01/28 10:16:11;;;;;;;11.23;6.20;;;2.70;99.90;;;;;;5050701;28;20239;-79
2022/01/28 10:18:43;;;;;;;11.17;5.13;;;2.70;99.90;;;;;;5056310;28;20561;-78
2022/01/28 10:21:17;;;;;;;7.93;4.27;;;2.90;99.90;;;;;;5065842;28;20231;-80
2022/01/28 10:23:56;;;;;;;8.37;4.43;;;2.80;99.90;;;;;;5057158;28;20197;-80
2022/01/28 10:26:33;;;;;;;6.97;4.40;;;2.90;99.90;;;;;;5063929;28;20196;-80
2022/01/28 10:29:04;;;;;;;6.97;4.13;;;3.00;99.90;;;;;;5053443;28;20690;-79
2022/01/28 10:31:38;;;;;;;7.83;4.60;;;2.90;99.90;;;;;;5059906;28;20192;-79
2022/01/28 10:34:12;;;;;;;9.07;4.70;;;2.80;99.90;;;;;;5057448;28;20265;-78
2022/01/28 10:36:47;;;;;;;11.70;4.77;;;2.60;99.90;;;;;;5056126;28;20207;-77
2022/01/28 10:39:18;;;;;;;8.40;5.07;;;2.50;99.90;;;;;;5054199;28;20246;-80
2022/01/28 10:41:52;;;;;;;10.03;5.47;;;2.50;99.90;;;;;;5054679;28;20645;-80
2022/01/28 10:44:22;;;;;;;11.87;5.73;;;2.40;99.90;;;;;;5062012;28;20212;-79
2022/01/28 10:46:57;;;;;;;8.57;4.77;;;2.40;99.90;;;;;;5047243;28;21002;-78
2022/01/28 10:49:31;;;;;;;10.73;5.30;;;2.50;99.90;;;;;;5060760;28;20228;-80
2022/01/28 10:52:09;;;;;;;10.43;6.17;;;2.50;99.90;;;;;;5061657;28;20211;-78
2022/01/28 10:54:42;;;;;;;11.10;5.70;;;2.60;99.90;;;;;;5056824;28;20210;-79
2022/01/28 10:57:10;;;;;;;11.87;5.67;;;2.60;99.90;;;;;;5046629;28;20228;-75
2022/01/28 10:59:41;;;;;;;12.47;5.83;;;2.80;99.90;;;;;;5062339;28;20200;-79
2022/01/28 11:02:11;;;;;;;8.77;4.63;;;3.00;99.90;;;;;;5056589;28;20206;-79
2022/01/28 11:04:40;;;;;;;9.67;5.53;;;3.00;99.90;;;;;;5070015;28;20228;-76
2022/01/28 11:07:09;;;;;;;9.70;4.90;;;3.10;99.90;;;;;;5063695;28;20213;-76
2022/01/28 11:09:37;;;;;;;7.93;4.97;;;3.20;99.90;;;;;;5057142;28;20226;-77
2022/01/28 11:12:08;;;;;;;10.17;4.60;;;3.30;99.90;;;;;;5040669;28;20205;-75
2022/01/28 11:14:36;;;;;;;8.67;4.27;;;3.30;99.90;;;;;;5054146;28;20209;-76
2022/01/28 11:17:05;;;;;;;5.90;4.10;;;3.30;99.90;;;;;;5057415;28;20208;-78
2022/01/28 11:19:41;;;;;;;8.63;4.23;;;3.20;99.90;;;;;;5050584;28;20201;-80
2022/01/28 11:22:25;;;;;;;7.27;4.20;;;3.20;99.90;;;;;;5062792;28;20207;-78
2022/01/28 11:25:09;;;;;;;8.50;4.20;;;3.20;99.90;;;;;;5060008;28;20201;-79
2022/01/28 11:27:40;;;;;;;9.47;4.47;;;3.10;99.90;;;;;;5047569;28;20248;-78
2022/01/28 11:30:22;;;;;;;8.57;3.97;;;3.00;99.90;;;;;;5059827;28;20343;-79
2022/01/28 11:33:02;;;;;;;11.37;4.70;;;2.90;99.90;;;;;;5057928;28;20242;-78
2022/01/28 11:35:38;;;;;;;7.83;4.57;;;2.90;99.90;;;;;;5058057;28;20215;-76
2022/01/28 11:38:35;;;;;;;7.67;4.77;;;2.80;99.90;;;;;;5059460;28;20212;-78
2022/01/28 11:41:08;;;;;;;8.40;4.57;;;2.70;99.90;;;;;;5057161;28;20208;-78
2022/01/28 11:43:52;;;;;;;7.50;4.97;;;2.50;99.90;;;;;;5056598;28;21089;-76
2022/01/28 11:46:23;;;;;;;6.87;4.47;;;2.30;99.90;;;;;;5057401;28;20251;-76
2022/01/28 11:49:10;;;;;;;7.30;4.77;;;2.10;99.90;;;;;;5057353;28;20231;-77
2022/01/28 11:51:42;;;;;;;8.33;4.80;;;1.90;99.90;;;;;;5040572;28;20267;-77
2022/01/28 11:54:12;;;;;;;7.97;5.07;;;1.90;99.90;;;;;;5056706;28;20720;-76
2022/01/28 11:57:13;;;;;;;7.67;4.97;;;1.80;99.90;;;;;;5056822;28;20242;-77
2022/01/28 11:59:42;;;;;;;10.03;5.47;;;1.80;99.90;;;;;;5055878;28;20189;-74
2022/01/28 12:02:13;;;;;;;10.87;5.97;;;1.90;99.90;;;;;;5051707;28;20213;-77
2022/01/28 12:04:44;;;;;;;9.67;5.87;;;1.90;99.90;;;;;;5035978;28;20459;-74
2022/01/28 12:07:18;;;;;;;7.87;5.47;;;2.10;99.90;;;;;;5035774;28;20216;-73
2022/01/28 12:09:49;;;;;;;9.73;5.43;;;2.20;99.90;;;;;;5035467;28;20652;-73
2022/01/28 12:12:55;;;;;;;10.93;5.30;;;2.20;99.90;;;;;;5040049;28;20204;-73
2022/01/28 12:15:25;;;;;;;7.57;3.87;;;2.00;99.90;;;;;;5055073;28;20267;-73
2022/01/28 12:18:07;;;;;;;7.50;2.63;;;1.50;99.90;;;;;;5055199;28;20195;-72
2022/01/28 12:20:47;;;;;;;7.97;2.40;;;1.20;99.90;;;;;;5035188;28;20232;-74
2022/01/28 12:23:38;;;;;;;7.03;2.70;;;1.10;99.90;;;;;;5041870;28;20508;-74
2022/01/28 12:26:07;;;;;;;6.67;2.40;;;0.80;99.90;;;;;;5055156;28;20515;-75
2022/01/28 12:28:48;;;;;;;6.10;2.27;;;0.90;99.90;;;;;;5055294;28;20445;-76
2022/01/28 12:31:30;;;;;;;6.27;2.60;;;0.90;99.90;;;;;;5072473;28;20454;-78
2022/01/28 12:34:02;;;;;;;4.10;2.03;;;1.00;99.90;;;;;;5065774;28;20951;-76
2022/01/28 12:36:33;;;;;;;4.67;1.77;;;1.10;99.90;;;;;;5056373;28;20437;-76
2022/01/28 12:39:13;;;;;;;3.90;1.90;;;1.10;99.90;;;;;;5080728;28;20466;-76
2022/01/28 12:41:56;;;;;;;5.03;2.33;;;1.20;99.90;;;;;;5075821;28;20473;-77
2022/01/28 12:44:24;;;;;;;6.87;2.00;;;1.80;99.90;;;;;;5072938;28;20455;-79
2022/01/28 12:47:00;;;;;;;4.40;2.20;;;1.40;99.90;;;;;;5056297;28;20472;-77
2022/01/28 12:49:31;;;;;;;6.07;1.80;;;1.50;99.90;;;;;;5055988;28;20469;-78
2022/01/28 12:52:01;;;;;;;3.10;1.70;;;1.70;99.90;;;;;;5057531;28;20837;-79
2022/01/28 12:54:33;;;;;;;3.60;1.50;;;1.70;99.90;;;;;;5057862;28;20451;-76
2022/01/28 12:57:02;;;;;;;6.57;1.63;;;1.70;99.90;;;;;;5057673;28;20471;-77
2022/01/28 12:59:30;;;;;;;4.77;1.73;;;1.80;99.90;;;;;;5058902;28;20446;-75
2022/01/28 13:01:59;;;;;;;4.53;2.03;;;1.80;99.90;;;;;;5056141;28;20516;-74
2022/01/28 13:04:48;;;;;;;5.57;2.40;;;1.90;99.90;;;;;;5050165;28;20208;-75
2022/01/28 13:10:06;;;;;;;6.50;1.90;;;2.00;99.90;;;;;;5060068;28;20254;-78
2022/01/28 13:12:35;;;;;;;6.47;2.60;;;2.30;99.90;;;;;;5061003;28;20208;-77
2022/01/28 13:15:09;;;;;;;19.43;9.10;;;2.40;99.90;;;;;;5060629;28;20272;-77
2022/01/28 13:17:39;;;;;;;9.40;4.47;;;2.50;99.90;;;;;;5063037;28;20299;-76
2022/01/28 13:20:10;;;;;;;5.60;3.20;;;2.60;99.90;;;;;;5060308;28;20200;-78
2022/01/28 13:22:40;;;;;;;4.63;2.00;;;2.70;99.90;;;;;;5057166;28;20323;-77
2022/01/28 13:25:22;;;;;;;5.07;1.77;;;2.80;99.90;;;;;;5058346;28;20655;-75
2022/01/28 13:27:57;;;;;;;4.00;2.00;;;2.80;99.90;;;;;;5065355;28;20196;-77
2022/01/28 13:30:26;;;;;;;4.30;2.00;;;2.70;99.90;;;;;;5059838;28;20222;-75
2022/01/28 13:33:02;;;;;;;5.17;2.13;;;2.60;99.90;;;;;;5062427;28;20758;-74
2022/01/28 13:35:33;;;;;;;5.70;2.40;;;2.60;99.90;;;;;;5033908;28;20196;-74
2022/01/28 13:38:06;;;;;;;5.90;2.07;;;2.60;99.90;;;;;;5033700;28;20205;-75
2022/01/28 13:40:39;;;;;;;7.57;2.40;;;2.70;99.90;;;;;;5032961;28;20215;-74
2022/01/28 13:43:09;;;;;;;5.00;2.17;;;2.60;99.90;;;;;;5033860;28;20228;-73
2022/01/28 13:45:40;;;;;;;6.17;2.53;;;2.60;99.90;;;;;;5042083;28;20211;-73
2022/01/28 13:48:14;;;;;;;6.60;2.80;;;2.40;99.90;;;;;;5053461;28;20216;-73
2022/01/28 13:50:45;;;;;;;6.33;2.80;;;2.40;99.90;;;;;;5052895;28;20218;-74
2022/01/28 13:56:11;;;;;;;9.80;3.13;;;2.50;99.90;;;;;;5033981;28;20272;-76
2022/01/28 13:58:50;;;;;;;7.17;3.33;;;2.50;99.90;;;;;;5056975;28;20223;-75
2022/01/28 14:01:20;;;;;;;5.67;2.53;;;2.50;99.90;;;;;;5050370;28;20200;-75
2022/01/28 14:03:52;;;;;;;5.97;2.93;;;2.60;99.90;;;;;;5048927;28;20212;-74
2022/01/28 14:06:21;;;;;;;4.33;2.63;;;2.70;99.90;;;;;;5053462;28;20546;-75
2022/01/28 14:09:04;;;;;;;8.40;3.03;;;2.70;99.90;;;;;;5053776;28;20210;-78
2022/01/28 14:11:38;;;;;;;6.00;2.80;;;2.80;99.90;;;;;;5052880;28;20307;-78